sensor_id;sensor_type;location;lat;lon;timestamp;pressure;altitude;pressure_sealevel;temperature;humidity
51452;BME280;37521;52.020;-1.740;2022-09-24T00:01:55;99982.69;;;8.36;100.00
51452;BME280;37521;52.020;-1.740;2022-09-24T00:04:24;99986.22;;;8.35;100.00
51452;BME280;37521;52.020;-1.740;2022-09-24T00:06:53;99985.44;;;8.32;100.00
51452;BME280;37521;52.020;-1.740;2022-09-24T00:09:22;99987.97;;;8.35;100.00
51452;BME280;37521;52.020;-1.740;2022-09-24T00:11:50;99986.13;;;8.38;100.00
51452;BME280;37521;52.020;-1.740;2022-09-24T00:14:21;99984.44;;;8.36;100.00
51452;BME280;37521;52.020;-1.740;2022-09-24T00:16:49;99983.63;;;8.34;100.00
51452;BME280;37521;52.020;-1.740;2022-09-24T00:19:17;99983.84;;;8.28;100.00
51452;BME280;37521;52.020;-1.740;2022-09-24T00:21:46;99976.00;;;8.26;100.00
51452;BME280;37521;52.020;-1.740;2022-09-24T00:24:15;99979.56;;;8.25;100.00
51452;BME280;37521;52.020;-1.740;2022-09-24T00:26:58;99976.31;;;8.18;100.00
51452;BME280;37521;52.020;-1.740;2022-09-24T00:29:28;99984.53;;;8.09;100.00
51452;BME280;37521;52.020;-1.740;2022-09-24T00:32:03;99982.16;;;8.02;100.00
51452;BME280;37521;52.020;-1.740;2022-09-24T00:34:32;99983.38;;;7.93;100.00
51452;BME280;37521;52.020;-1.740;2022-09-24T00:37:00;99985.41;;;7.85;100.00
51452;BME280;37521;52.020;-1.740;2022-09-24T00:39:28;99981.34;;;7.76;100.00
51452;BME280;37521;52.020;-1.740;2022-09-24T00:41:57;99985.03;;;7.71;100.00
51452;BME280;37521;52.020;-1.740;2022-09-24T00:44:49;99980.72;;;7.70;100.00
51452;BME280;37521;52.020;-1.740;2022-09-24T00:50:11;99977.25;;;7.68;100.00
51452;BME280;37521;52.020;-1.740;2022-09-24T00:52:44;99976.41;;;7.67;100.00
51452;BME280;37521;52.020;-1.740;2022-09-24T00:55:14;99971.13;;;7.67;100.00
51452;BME280;37521;52.020;-1.740;2022-09-24T00:57:43;99972.13;;;7.64;100.00
51452;BME280;37521;52.020;-1.740;2022-09-24T01:00:13;99979.09;;;7.65;100.00
51452;BME280;37521;52.020;-1.740;2022-09-24T01:02:44;99977.47;;;7.61;100.00
51452;BME280;37521;52.020;-1.740;2022-09-24T01:05:13;99978.44;;;7.59;100.00
51452;BME280;37521;52.020;-1.740;2022-09-24T01:07:41;99969.78;;;7.55;100.00
51452;BME280;37521;52.020;-1.740;2022-09-24T01:10:10;99966.22;;;7.58;100.00
51452;BME280;37521;52.020;-1.740;2022-09-24T01:12:43;99970.63;;;7.57;100.00
51452;BME280;37521;52.020;-1.740;2022-09-24T01:15:22;99970.56;;;7.59;100.00
51452;BME280;37521;52.020;-1.740;2022-09-24T01:17:57;99965.25;;;7.60;100.00
51452;BME280;37521;52.020;-1.740;2022-09-24T01:20:52;99967.78;;;7.63;100.00
51452;BME280;37521;52.020;-1.740;2022-09-24T01:23:45;99965.03;;;7.67;100.00
51452;BME280;37521;52.020;-1.740;2022-09-24T01:26:32;99961.47;;;7.68;100.00
51452;BME280;37521;52.020;-1.740;2022-09-24T01:29:27;99966.06;;;7.62;100.00
51452;BME280;37521;52.020;-1.740;2022-09-24T01:32:01;99958.28;;;7.59;100.00
51452;BME280;37521;52.020;-1.740;2022-09-24T01:34:36;99954.03;;;7.55;100.00
51452;BME280;37521;52.020;-1.740;2022-09-24T01:37:07;99949.69;;;7.54;100.00
51452;BME280;37521;52.020;-1.740;2022-09-24T01:39:36;99950.66;;;7.52;100.00
51452;BME280;37521;52.020;-1.740;2022-09-24T01:42:06;99956.91;;;7.49;100.00
51452;BME280;37521;52.020;-1.740;2022-09-24T01:44:39;99950.00;;;7.45;100.00
51452;BME280;37521;52.020;-1.740;2022-09-24T01:47:11;99965.78;;;7.45;100.00
51452;BME280;37521;52.020;-1.740;2022-09-24T01:49:45;99955.41;;;7.41;100.00
51452;BME280;37521;52.020;-1.740;2022-09-24T01:52:18;99953.56;;;7.44;100.00
51452;BME280;37521;52.020;-1.740;2022-09-24T01:54:49;99953.56;;;7.44;100.00
51452;BME280;37521;52.020;-1.740;2022-09-24T01:57:21;99951.84;;;7.43;100.00
51452;BME280;37521;52.020;-1.740;2022-09-24T01:59:56;99957.25;;;7.38;100.00
51452;BME280;37521;52.020;-1.740;2022-09-24T02:02:29;99947.81;;;7.33;100.00
51452;BME280;37521;52.020;-1.740;2022-09-24T02:05:04;99956.66;;;7.30;100.00
51452;BME280;37521;52.020;-1.740;2022-09-24T02:07:37;99948.00;;;7.27;100.00
51452;BME280;37521;52.020;-1.740;2022-09-24T02:10:13;99949.03;;;7.23;100.00
51452;BME280;37521;52.020;-1.740;2022-09-24T02:12:41;99952.66;;;7.19;100.00
51452;BME280;37521;52.020;-1.740;2022-09-24T02:15:15;99945.69;;;7.18;100.00
51452;BME280;37521;52.020;-1.740;2022-09-24T02:17:52;99940.66;;;7.12;100.00
51452;BME280;37521;52.020;-1.740;2022-09-24T02:20:23;99948.63;;;7.08;100.00
51452;BME280;37521;52.020;-1.740;2022-09-24T02:22:54;99952.00;;;7.12;100.00
51452;BME280;37521;52.020;-1.740;2022-09-24T02:25:28;99951.16;;;7.12;100.00
51452;BME280;37521;52.020;-1.740;2022-09-24T02:27:58;99939.94;;;7.06;100.00
51452;BME280;37521;52.020;-1.740;2022-09-24T02:30:28;99943.47;;;7.05;100.00
51452;BME280;37521;52.020;-1.740;2022-09-24T02:33:00;99947.94;;;7.03;100.00
51452;BME280;37521;52.020;-1.740;2022-09-24T02:35:28;99948.84;;;7.02;100.00
51452;BME280;37521;52.020;-1.740;2022-09-24T02:37:56;99949.72;;;7.01;100.00
51452;BME280;37521;52.020;-1.740;2022-09-24T02:40:32;99949.84;;;6.98;100.00
51452;BME280;37521;52.020;-1.740;2022-09-24T02:43:00;99951.56;;;6.99;100.00
51452;BME280;37521;52.020;-1.740;2022-09-24T02:45:30;99953.38;;;6.97;100.00
51452;BME280;37521;52.020;-1.740;2022-09-24T02:47:58;99945.59;;;6.94;100.00
51452;BME280;37521;52.020;-1.740;2022-09-24T02:50:27;99954.44;;;6.92;100.00
51452;BME280;37521;52.020;-1.740;2022-09-24T02:52:55;99955.28;;;6.92;100.00
51452;BME280;37521;52.020;-1.740;2022-09-24T02:55:24;99947.41;;;6.92;100.00
51452;BME280;37521;52.020;-1.740;2022-09-24T02:57:53;99950.03;;;6.92;100.00
51452;BME280;37521;52.020;-1.740;2022-09-24T03:00:37;99950.16;;;6.89;100.00
51452;BME280;37521;52.020;-1.740;2022-09-24T03:03:05;99955.66;;;6.80;100.00
51452;BME280;37521;52.020;-1.740;2022-09-24T03:05:34;99950.53;;;6.77;100.00
51452;BME280;37521;52.020;-1.740;2022-09-24T03:08:02;99948.81;;;6.76;100.00
51452;BME280;37521;52.020;-1.740;2022-09-24T03:10:33;99955.88;;;6.74;100.00
51452;BME280;37521;52.020;-1.740;2022-09-24T03:13:01;99954.34;;;6.67;100.00
51452;BME280;37521;52.020;-1.740;2022-09-24T03:15:30;99947.38;;;6.66;100.00
51452;BME280;37521;52.020;-1.740;2022-09-24T03:17:59;99953.53;;;6.65;100.00
51452;BME280;37521;52.020;-1.740;2022-09-24T03:20:27;99948.38;;;6.62;100.00
51452;BME280;37521;52.020;-1.740;2022-09-24T03:22:56;99942.31;;;6.60;100.00
51452;BME280;37521;52.020;-1.740;2022-09-24T03:25:24;99952.00;;;6.58;100.00
51452;BME280;37521;52.020;-1.740;2022-09-24T03:27:53;99942.50;;;6.53;100.00
51452;BME280;37521;52.020;-1.740;2022-09-24T03:30:21;99946.91;;;6.53;100.00
51452;BME280;37521;52.020;-1.740;2022-09-24T03:33:08;99948.66;;;6.52;100.00
51452;BME280;37521;52.020;-1.740;2022-09-24T03:35:36;99945.19;;;6.52;100.00
51452;BME280;37521;52.020;-1.740;2022-09-24T03:38:04;99955.63;;;6.53;100.00
51452;BME280;37521;52.020;-1.740;2022-09-24T03:40:33;99956.53;;;6.52;100.00
51452;BME280;37521;52.020;-1.740;2022-09-24T03:43:01;99958.31;;;6.52;100.00
51452;BME280;37521;52.020;-1.740;2022-09-24T03:45:29;99958.19;;;6.55;100.00
51452;BME280;37521;52.020;-1.740;2022-09-24T03:47:58;99958.16;;;6.57;100.00
51452;BME280;37521;52.020;-1.740;2022-09-24T03:50:27;99952.94;;;6.57;100.00
51452;BME280;37521;52.020;-1.740;2022-09-24T03:52:56;99958.16;;;6.57;100.00
51452;BME280;37521;52.020;-1.740;2022-09-24T03:55:25;99960.75;;;6.58;100.00
51452;BME280;37521;52.020;-1.740;2022-09-24T03:57:53;99961.66;;;6.57;100.00
51452;BME280;37521;52.020;-1.740;2022-09-24T04:00:21;99961.66;;;6.57;100.00
51452;BME280;37521;52.020;-1.740;2022-09-24T04:02:50;99961.72;;;6.55;100.00
51452;BME280;37521;52.020;-1.740;2022-09-24T04:05:19;99967.03;;;6.52;100.00
51452;BME280;37521;52.020;-1.740;2022-09-24T04:07:49;99967.09;;;6.51;100.00
51452;BME280;37521;52.020;-1.740;2022-09-24T04:10:17;99962.78;;;6.48;100.00
51452;BME280;37521;52.020;-1.740;2022-09-24T04:12:45;99971.59;;;6.46;100.00
51452;BME280;37521;52.020;-1.740;2022-09-24T04:15:13;99967.31;;;6.43;100.00
51452;BME280;37521;52.020;-1.740;2022-09-24T04:17:48;99970.00;;;6.40;100.00
51452;BME280;37521;52.020;-1.740;2022-09-24T04:20:17;99974.41;;;6.40;100.00
51452;BME280;37521;52.020;-1.740;2022-09-24T04:22:51;99970.88;;;6.41;100.00
51452;BME280;37521;52.020;-1.740;2022-09-24T04:25:21;99975.22;;;6.42;100.00
51452;BME280;37521;52.020;-1.740;2022-09-24T04:27:52;99968.25;;;6.41;100.00
51452;BME280;37521;52.020;-1.740;2022-09-24T04:30:22;99972.81;;;6.34;100.00
51452;BME280;37521;52.020;-1.740;2022-09-24T04:32:51;99972.19;;;6.26;100.00
51452;BME280;37521;52.020;-1.740;2022-09-24T04:35:21;99976.53;;;6.27;100.00
51452;BME280;37521;52.020;-1.740;2022-09-24T04:37:51;99969.56;;;6.26;100.00
51452;BME280;37521;52.020;-1.740;2022-09-24T04:40:19;99972.38;;;6.20;100.00
51452;BME280;37521;52.020;-1.740;2022-09-24T04:42:48;99981.31;;;6.13;100.00
51452;BME280;37521;52.020;-1.740;2022-09-24T04:45:16;99975.50;;;6.01;100.00
51452;BME280;37521;52.020;-1.740;2022-09-24T04:47:46;99986.25;;;5.92;100.00
51452;BME280;37521;52.020;-1.740;2022-09-24T04:50:23;99982.72;;;5.93;100.00
51452;BME280;37521;52.020;-1.740;2022-09-24T04:52:54;99985.00;;;6.06;100.00
51452;BME280;37521;52.020;-1.740;2022-09-24T04:55:22;99980.41;;;6.14;100.00
51452;BME280;37521;52.020;-1.740;2022-09-24T04:57:51;99983.75;;;6.19;100.00
51452;BME280;37521;52.020;-1.740;2022-09-24T05:00:23;99979.38;;;6.19;100.00
51452;BME280;37521;52.020;-1.740;2022-09-24T05:02:55;99989.81;;;6.21;100.00
51452;BME280;37521;52.020;-1.740;2022-09-24T05:05:24;99983.75;;;6.19;100.00
51452;BME280;37521;52.020;-1.740;2022-09-24T05:07:53;99989.19;;;6.13;100.00
51452;BME280;37521;52.020;-1.740;2022-09-24T05:10:25;100002.41;;;6.08;100.00
51452;BME280;37521;52.020;-1.740;2022-09-24T05:12:53;99995.63;;;6.01;100.00
51452;BME280;37521;52.020;-1.740;2022-09-24T05:15:21;99993.00;;;6.01;100.00
51452;BME280;37521;52.020;-1.740;2022-09-24T05:17:50;99999.06;;;6.03;100.00
51452;BME280;37521;52.020;-1.740;2022-09-24T05:20:18;99996.66;;;5.95;100.00
51452;BME280;37521;52.020;-1.740;2022-09-24T05:22:48;99997.72;;;5.87;100.00
51452;BME280;37521;52.020;-1.740;2022-09-24T05:25:20;100007.31;;;5.88;100.00
51452;BME280;37521;52.020;-1.740;2022-09-24T05:27:50;100004.66;;;5.91;100.00
51452;BME280;37521;52.020;-1.740;2022-09-24T05:30:19;100002.91;;;5.88;100.00
51452;BME280;37521;52.020;-1.740;2022-09-24T05:32:48;100010.34;;;5.72;100.00
51452;BME280;37521;52.020;-1.740;2022-09-24T05:35:18;100014.97;;;5.63;100.00
51452;BME280;37521;52.020;-1.740;2022-09-24T05:37:47;100017.72;;;5.58;100.00
51452;BME280;37521;52.020;-1.740;2022-09-24T05:40:21;100018.50;;;5.60;100.00
51452;BME280;37521;52.020;-1.740;2022-09-24T05:43:07;100026.22;;;5.66;100.00
51452;BME280;37521;52.020;-1.740;2022-09-24T05:45:35;100027.06;;;5.67;100.00
51452;BME280;37521;52.020;-1.740;2022-09-24T05:48:03;100023.50;;;5.71;100.00
51452;BME280;37521;52.020;-1.740;2022-09-24T05:50:32;100032.97;;;5.75;100.00
51452;BME280;37521;52.020;-1.740;2022-09-24T05:53:01;100024.09;;;5.81;100.00
51452;BME280;37521;52.020;-1.740;2022-09-24T05:55:31;100025.00;;;5.80;100.00
51452;BME280;37521;52.020;-1.740;2022-09-24T05:58:03;100028.47;;;5.80;100.00
51452;BME280;37521;52.020;-1.740;2022-09-24T06:00:32;100025.78;;;5.83;100.00
51452;BME280;37521;52.020;-1.740;2022-09-24T06:03:03;100032.66;;;5.87;100.00
51452;BME280;37521;52.020;-1.740;2022-09-24T06:05:34;100031.66;;;5.93;100.00
51452;BME280;37521;52.020;-1.740;2022-09-24T06:08:02;100043.84;;;5.94;100.00
51452;BME280;37521;52.020;-1.740;2022-09-24T06:10:32;100043.75;;;5.98;100.00
51452;BME280;37521;52.020;-1.740;2022-09-24T06:13:01;100045.47;;;5.99;100.00
51452;BME280;37521;52.020;-1.740;2022-09-24T06:15:29;100051.50;;;6.01;100.00
51452;BME280;37521;52.020;-1.740;2022-09-24T06:17:58;100066.38;;;6.03;100.00
51452;BME280;37521;52.020;-1.740;2022-09-24T06:20:26;100061.13;;;6.03;100.00
51452;BME280;37521;52.020;-1.740;2022-09-24T06:22:55;100059.34;;;6.03;100.00
51452;BME280;37521;52.020;-1.740;2022-09-24T06:25:23;100063.75;;;6.01;100.00
51452;BME280;37521;52.020;-1.740;2022-09-24T06:27:54;100062.88;;;6.02;100.00
51452;BME280;37521;52.020;-1.740;2022-09-24T06:30:27;100067.22;;;6.03;100.00
51452;BME280;37521;52.020;-1.740;2022-09-24T06:33:00;100064.50;;;6.06;100.00
51452;BME280;37521;52.020;-1.740;2022-09-24T06:35:33;100061.81;;;6.09;100.00
51452;BME280;37521;52.020;-1.740;2022-09-24T06:38:02;100064.34;;;6.12;100.00
51452;BME280;37521;52.020;-1.740;2022-09-24T06:40:31;100061.66;;;6.14;100.00
51452;BME280;37521;52.020;-1.740;2022-09-24T06:43:05;100070.38;;;6.16;100.00
51452;BME280;37521;52.020;-1.740;2022-09-24T06:45:34;100071.19;;;6.18;100.00
51452;BME280;37521;52.020;-1.740;2022-09-24T06:48:04;100072.00;;;6.20;100.00
51452;BME280;37521;52.020;-1.740;2022-09-24T06:50:34;100076.31;;;6.22;100.00
51452;BME280;37521;52.020;-1.740;2022-09-24T06:53:04;100075.47;;;6.20;100.00
51452;BME280;37521;52.020;-1.740;2022-09-24T06:55:33;100076.38;;;6.19;100.00
51452;BME280;37521;52.020;-1.740;2022-09-24T06:58:05;100074.63;;;6.20;100.00
51452;BME280;37521;52.020;-1.740;2022-09-24T07:00:35;100087.59;;;6.24;100.00
51452;BME280;37521;52.020;-1.740;2022-09-24T07:03:05;100082.25;;;6.29;100.00
51452;BME280;37521;52.020;-1.740;2022-09-24T07:05:34;100091.72;;;6.33;100.00
51452;BME280;37521;52.020;-1.740;2022-09-24T07:08:09;100089.72;;;6.43;100.00
51452;BME280;37521;52.020;-1.740;2022-09-24T07:10:41;100091.97;;;6.57;100.00
51452;BME280;37521;52.020;-1.740;2022-09-24T07:13:11;100091.91;;;6.58;100.00
51452;BME280;37521;52.020;-1.740;2022-09-24T07:15:41;100092.88;;;6.55;100.00
51452;BME280;37521;52.020;-1.740;2022-09-24T07:18:10;100094.59;;;6.57;100.00
51452;BME280;37521;52.020;-1.740;2022-09-24T07:20:39;100100.69;;;6.57;100.00
51452;BME280;37521;52.020;-1.740;2022-09-24T07:23:09;100097.19;;;6.57;100.00
51452;BME280;37521;52.020;-1.740;2022-09-24T07:25:38;100099.00;;;6.54;100.00
51452;BME280;37521;52.020;-1.740;2022-09-24T07:28:08;100101.59;;;6.54;100.00
51452;BME280;37521;52.020;-1.740;2022-09-24T07:30:39;100099.72;;;6.60;100.00
51452;BME280;37521;52.020;-1.740;2022-09-24T07:33:07;100108.34;;;6.65;100.00
51452;BME280;37521;52.020;-1.740;2022-09-24T07:35:37;100109.88;;;6.72;100.00
51452;BME280;37521;52.020;-1.740;2022-09-24T07:38:07;100110.50;;;6.80;100.00
51452;BME280;37521;52.020;-1.740;2022-09-24T07:40:38;100109.41;;;6.87;100.00
51452;BME280;37521;52.020;-1.740;2022-09-24T07:43:06;100108.50;;;6.90;100.00
51452;BME280;37521;52.020;-1.740;2022-09-24T07:45:40;100110.88;;;6.97;100.00
51452;BME280;37521;52.020;-1.740;2022-09-24T07:48:09;100109.69;;;7.07;100.00
51452;BME280;37521;52.020;-1.740;2022-09-24T07:50:40;100107.78;;;7.13;100.00
51452;BME280;37521;52.020;-1.740;2022-09-24T07:53:10;100111.03;;;7.21;100.00
51452;BME280;37521;52.020;-1.740;2022-09-24T07:55:40;100112.66;;;7.25;100.00
51452;BME280;37521;52.020;-1.740;2022-09-24T07:58:11;100109.84;;;7.31;100.00
51452;BME280;37521;52.020;-1.740;2022-09-24T08:00:41;100109.72;;;7.34;100.00
51452;BME280;37521;52.020;-1.740;2022-09-24T08:03:09;100107.84;;;7.39;100.00
51452;BME280;37521;52.020;-1.740;2022-09-24T08:05:42;100107.53;;;7.48;100.00
51452;BME280;37521;52.020;-1.740;2022-09-24T08:08:11;100105.63;;;7.53;100.00
51452;BME280;37521;52.020;-1.740;2022-09-24T08:10:40;100114.28;;;7.57;100.00
51452;BME280;37521;52.020;-1.740;2022-09-24T08:13:09;100113.16;;;7.64;100.00
51452;BME280;37521;52.020;-1.740;2022-09-24T08:15:37;100130.44;;;7.71;100.00
51452;BME280;37521;52.020;-1.740;2022-09-24T08:18:07;100121.59;;;7.74;100.00
51452;BME280;37521;52.020;-1.740;2022-09-24T08:20:37;100126.75;;;7.77;100.00
51452;BME280;37521;52.020;-1.740;2022-09-24T08:23:07;100126.72;;;7.78;100.00
51452;BME280;37521;52.020;-1.740;2022-09-24T08:25:36;100133.22;;;7.93;100.00
51452;BME280;37521;52.020;-1.740;2022-09-24T08:28:06;100139.06;;;8.01;100.00
51452;BME280;37521;52.020;-1.740;2022-09-24T08:30:35;100138.88;;;8.07;100.00
51452;BME280;37521;52.020;-1.740;2022-09-24T08:33:03;100136.03;;;8.13;100.00
51452;BME280;37521;52.020;-1.740;2022-09-24T08:35:34;100143.84;;;8.16;100.00
51452;BME280;37521;52.020;-1.740;2022-09-24T08:38:03;100136.63;;;8.22;100.00
51452;BME280;37521;52.020;-1.740;2022-09-24T08:40:35;100143.38;;;8.29;100.00
51452;BME280;37521;52.020;-1.740;2022-09-24T08:43:13;100145.00;;;8.33;100.00
51452;BME280;37521;52.020;-1.740;2022-09-24T08:45:50;100145.69;;;8.39;100.00
51452;BME280;37521;52.020;-1.740;2022-09-24T08:48:40;100145.69;;;8.39;100.00
51452;BME280;37521;52.020;-1.740;2022-09-24T08:51:15;100155.03;;;8.48;100.00
51452;BME280;37521;52.020;-1.740;2022-09-24T08:53:49;100158.25;;;8.56;100.00
51452;BME280;37521;52.020;-1.740;2022-09-24T08:56:23;100166.75;;;8.64;100.00
51452;BME280;37521;52.020;-1.740;2022-09-24T08:58:56;100166.53;;;8.70;100.00
51452;BME280;37521;52.020;-1.740;2022-09-24T09:01:32;100158.41;;;8.77;100.00
51452;BME280;37521;52.020;-1.740;2022-09-24T09:04:10;100168.00;;;8.78;100.00
51452;BME280;37521;52.020;-1.740;2022-09-24T09:09:41;100168.38;;;8.92;100.00
51452;BME280;37521;52.020;-1.740;2022-09-24T09:12:14;100166.22;;;9.01;100.00
51452;BME280;37521;52.020;-1.740;2022-09-24T09:14:49;100166.63;;;9.14;100.00
51452;BME280;37521;52.020;-1.740;2022-09-24T09:17:28;100163.38;;;9.31;100.00
51452;BME280;37521;52.020;-1.740;2022-09-24T09:20:02;100163.06;;;9.39;100.00
51452;BME280;37521;52.020;-1.740;2022-09-24T09:22:38;100155.53;;;9.51;100.00
51452;BME280;37521;52.020;-1.740;2022-09-24T09:25:17;100157.63;;;9.65;100.00
51452;BME280;37521;52.020;-1.740;2022-09-24T09:27:50;100156.22;;;9.78;100.00
51452;BME280;37521;52.020;-1.740;2022-09-24T09:30:19;100144.09;;;9.95;100.00
51452;BME280;37521;52.020;-1.740;2022-09-24T09:33:07;100156.19;;;10.21;100.00
51452;BME280;37521;52.020;-1.740;2022-09-24T09:35:46;100145.56;;;10.44;100.00
51452;BME280;37521;52.020;-1.740;2022-09-24T09:38:22;100151.94;;;10.59;100.00
51452;BME280;37521;52.020;-1.740;2022-09-24T09:40:56;100147.84;;;10.72;100.00
51452;BME280;37521;52.020;-1.740;2022-09-24T09:43:28;100149.94;;;10.84;100.00
51452;BME280;37521;52.020;-1.740;2022-09-24T09:46:04;100143.16;;;10.98;100.00
51452;BME280;37521;52.020;-1.740;2022-09-24T09:48:43;100145.09;;;11.13;100.00
51452;BME280;37521;52.020;-1.740;2022-09-24T09:51:16;100137.94;;;11.15;100.00
51452;BME280;37521;52.020;-1.740;2022-09-24T09:53:57;100147.56;;;11.16;100.00
51452;BME280;37521;52.020;-1.740;2022-09-24T09:56:28;100142.81;;;11.24;100.00
51452;BME280;37521;52.020;-1.740;2022-09-24T09:59:16;100140.88;;;11.28;100.00
51452;BME280;37521;52.020;-1.740;2022-09-24T10:01:46;100145.59;;;11.21;100.00
51452;BME280;37521;52.020;-1.740;2022-09-24T10:04:35;100149.06;;;11.03;100.00
51452;BME280;37521;52.020;-1.740;2022-09-24T10:07:06;100152.56;;;10.84;100.00
51452;BME280;37521;52.020;-1.740;2022-09-24T10:09:37;100139.91;;;10.72;100.00
51452;BME280;37521;52.020;-1.740;2022-09-24T10:12:08;100145.47;;;10.66;100.00
51452;BME280;37521;52.020;-1.740;2022-09-24T10:14:36;100143.50;;;10.71;100.00
51452;BME280;37521;52.020;-1.740;2022-09-24T10:17:05;100148.50;;;10.96;100.00
51452;BME280;37521;52.020;-1.740;2022-09-24T10:19:34;100146.03;;;11.31;100.00
51452;BME280;37521;52.020;-1.740;2022-09-24T10:22:08;100137.16;;;11.51;100.00
51452;BME280;37521;52.020;-1.740;2022-09-24T10:24:42;100142.66;;;11.82;100.00
51452;BME280;37521;52.020;-1.740;2022-09-24T10:27:12;100143.34;;;12.05;100.00
51452;BME280;37521;52.020;-1.740;2022-09-24T10:29:41;100140.00;;;12.18;100.00
51452;BME280;37521;52.020;-1.740;2022-09-24T10:32:27;100147.06;;;12.35;100.00
51452;BME280;37521;52.020;-1.740;2022-09-24T10:34:58;100142.38;;;12.40;99.97
51452;BME280;37521;52.020;-1.740;2022-09-24T10:37:27;100144.00;;;12.43;99.98
51452;BME280;37521;52.020;-1.740;2022-09-24T10:39:58;100138.50;;;12.30;99.81
51452;BME280;37521;52.020;-1.740;2022-09-24T10:42:29;100140.31;;;12.12;100.00
51452;BME280;37521;52.020;-1.740;2022-09-24T10:44:59;100144.81;;;11.93;100.00
51452;BME280;37521;52.020;-1.740;2022-09-24T10:47:38;100141.09;;;11.97;100.00
51452;BME280;37521;52.020;-1.740;2022-09-24T10:50:30;100137.25;;;12.20;98.81
51452;BME280;37521;52.020;-1.740;2022-09-24T10:53:07;100120.41;;;12.55;97.99
51452;BME280;37521;52.020;-1.740;2022-09-24T10:55:47;100133.56;;;12.90;95.58
51452;BME280;37521;52.020;-1.740;2022-09-24T10:58:40;100137.88;;;13.08;94.04
51452;BME280;37521;52.020;-1.740;2022-09-24T11:01:17;100128.63;;;13.16;93.44
51452;BME280;37521;52.020;-1.740;2022-09-24T11:03:54;100132.34;;;13.29;91.89
51452;BME280;37521;52.020;-1.740;2022-09-24T11:06:39;100135.09;;;13.43;89.66
51452;BME280;37521;52.020;-1.740;2022-09-24T11:09:19;100128.22;;;13.71;89.64
51452;BME280;37521;52.020;-1.740;2022-09-24T11:12:00;100127.94;;;13.91;86.26
51452;BME280;37521;52.020;-1.740;2022-09-24T11:14:44;100109.44;;;14.20;82.58
51452;BME280;37521;52.020;-1.740;2022-09-24T11:17:24;100112.88;;;14.36;83.80
51452;BME280;37521;52.020;-1.740;2022-09-24T11:20:18;100123.88;;;14.30;81.40
51452;BME280;37521;52.020;-1.740;2022-09-24T11:22:56;100123.00;;;14.29;83.34
51452;BME280;37521;52.020;-1.740;2022-09-24T11:25:38;100116.94;;;13.97;80.33
51452;BME280;37521;52.020;-1.740;2022-09-24T11:28:23;100136.13;;;14.02;79.84
51452;BME280;37521;52.020;-1.740;2022-09-24T11:31:04;100121.00;;;14.18;81.55
51452;BME280;37521;52.020;-1.740;2022-09-24T11:33:49;100113.97;;;14.17;79.20
51452;BME280;37521;52.020;-1.740;2022-09-24T11:36:34;100121.25;;;14.00;78.91
51452;BME280;37521;52.020;-1.740;2022-09-24T11:39:16;100130.41;;;13.94;82.93
51452;BME280;37521;52.020;-1.740;2022-09-24T11:41:53;100124.00;;;13.98;79.55
51452;BME280;37521;52.020;-1.740;2022-09-24T11:44:46;100118.34;;;14.18;78.82
51452;BME280;37521;52.020;-1.740;2022-09-24T11:47:29;100114.47;;;14.24;80.70
51452;BME280;37521;52.020;-1.740;2022-09-24T11:50:11;100117.22;;;14.23;80.17
51452;BME280;37521;52.020;-1.740;2022-09-24T11:52:46;100111.13;;;14.06;83.19
51452;BME280;37521;52.020;-1.740;2022-09-24T11:55:18;100117.41;;;14.20;92.45
51452;BME280;37521;52.020;-1.740;2022-09-24T11:57:52;100122.16;;;14.29;86.00
51452;BME280;37521;52.020;-1.740;2022-09-24T12:00:26;100114.56;;;14.53;81.69
51452;BME280;37521;52.020;-1.740;2022-09-24T12:03:04;100116.00;;;14.73;82.15
51452;BME280;37521;52.020;-1.740;2022-09-24T12:05:38;100098.88;;;14.91;81.39
51452;BME280;37521;52.020;-1.740;2022-09-24T12:08:13;100118.03;;;14.39;79.73
51452;BME280;37521;52.020;-1.740;2022-09-24T12:10:45;100122.44;;;13.94;82.35
51452;BME280;37521;52.020;-1.740;2022-09-24T12:13:19;100126.44;;;13.55;85.38
51452;BME280;37521;52.020;-1.740;2022-09-24T12:15:54;100125.59;;;13.23;87.47
51452;BME280;37521;52.020;-1.740;2022-09-24T12:18:26;100134.44;;;13.06;86.97
51452;BME280;37521;52.020;-1.740;2022-09-24T12:20:58;100137.19;;;13.05;88.07
51452;BME280;37521;52.020;-1.740;2022-09-24T12:23:30;100123.63;;;13.27;90.27
51452;BME280;37521;52.020;-1.740;2022-09-24T12:26:02;100130.00;;;13.70;91.60
51452;BME280;37521;52.020;-1.740;2022-09-24T12:28:36;100128.69;;;14.23;85.30
51452;BME280;37521;52.020;-1.740;2022-09-24T12:31:33;100129.72;;;14.21;83.44
51452;BME280;37521;52.020;-1.740;2022-09-24T12:34:26;100129.31;;;13.98;84.98
51452;BME280;37521;52.020;-1.740;2022-09-24T12:37:02;100131.91;;;13.68;84.76
51452;BME280;37521;52.020;-1.740;2022-09-24T12:39:37;100122.28;;;13.51;84.06
51452;BME280;37521;52.020;-1.740;2022-09-24T12:42:10;100125.50;;;13.56;86.83
51452;BME280;37521;52.020;-1.740;2022-09-24T12:44:43;100118.19;;;14.36;84.30
51452;BME280;37521;52.020;-1.740;2022-09-24T12:47:18;100104.56;;;15.13;78.32
51452;BME280;37521;52.020;-1.740;2022-09-24T12:49:49;100111.59;;;15.83;75.59
51452;BME280;37521;52.020;-1.740;2022-09-24T12:52:24;100108.44;;;15.63;73.67
51452;BME280;37521;52.020;-1.740;2022-09-24T12:54:56;100107.03;;;15.85;73.79
51452;BME280;37521;52.020;-1.740;2022-09-24T12:57:29;100114.38;;;16.33;74.03
51452;BME280;37521;52.020;-1.740;2022-09-24T13:00:01;100115.63;;;16.15;70.28
51452;BME280;37521;52.020;-1.740;2022-09-24T13:02:45;100116.13;;;15.26;72.43
51452;BME280;37521;52.020;-1.740;2022-09-24T13:05:23;100119.59;;;14.71;75.75
51452;BME280;37521;52.020;-1.740;2022-09-24T13:07:57;100124.84;;;14.43;79.82
51452;BME280;37521;52.020;-1.740;2022-09-24T13:10:27;100130.00;;;14.16;82.52
51452;BME280;37521;52.020;-1.740;2022-09-24T13:12:57;100138.72;;;13.88;87.11
51452;BME280;37521;52.020;-1.740;2022-09-24T13:15:31;100135.16;;;13.57;89.32
51452;BME280;37521;52.020;-1.740;2022-09-24T13:18:12;100149.56;;;13.38;91.93